sensor_id;sensor_type;location;lat;lon;timestamp;P1;durP1;ratioP1;P2;durP2;ratioP2
80508;SDS011;69838;52.602;13.434;2023-05-07T00:00:16;20.15;;;16.27;;
80508;SDS011;69838;52.602;13.434;2023-05-07T00:01:03;19.80;;;17.33;;
80508;SDS011;69838;52.602;13.434;2023-05-07T00:01:50;20.27;;;17.73;;
80508;SDS011;69838;52.602;13.434;2023-05-07T00:02:37;18.52;;;16.17;;
80508;SDS011;69838;52.602;13.434;2023-05-07T00:03:25;19.23;;;17.00;;
80508;SDS011;69838;52.602;13.434;2023-05-07T00:04:11;20.52;;;17.08;;
80508;SDS011;69838;52.602;13.434;2023-05-07T00:04:58;19.98;;;17.65;;
80508;SDS011;69838;52.602;13.434;2023-05-07T00:05:43;20.33;;;17.63;;
80508;SDS011;69838;52.602;13.434;2023-05-07T00:06:29;17.75;;;14.27;;
80508;SDS011;69838;52.602;13.434;2023-05-07T00:07:15;20.67;;;18.48;;
80508;SDS011;69838;52.602;13.434;2023-05-07T00:08:01;22.45;;;17.88;;
80508;SDS011;69838;52.602;13.434;2023-05-07T00:08:47;20.60;;;17.50;;
80508;SDS011;69838;52.602;13.434;2023-05-07T00:09:35;18.88;;;15.13;;
80508;SDS011;69838;52.602;13.434;2023-05-07T00:10:21;21.00;;;18.17;;
80508;SDS011;69838;52.602;13.434;2023-05-07T00:11:06;19.80;;;16.80;;
80508;SDS011;69838;52.602;13.434;2023-05-07T00:11:51;19.17;;;17.17;;
80508;SDS011;69838;52.602;13.434;2023-05-07T00:12:37;21.95;;;18.70;;
80508;SDS011;69838;52.602;13.434;2023-05-07T00:13:22;19.85;;;17.73;;
80508;SDS011;69838;52.602;13.434;2023-05-07T00:14:07;20.05;;;17.92;;
80508;SDS011;69838;52.602;13.434;2023-05-07T00:14:53;19.70;;;17.60;;
80508;SDS011;69838;52.602;13.434;2023-05-07T00:15:38;21.55;;;17.90;;
80508;SDS011;69838;52.602;13.434;2023-05-07T00:16:23;19.65;;;16.48;;
80508;SDS011;69838;52.602;13.434;2023-05-07T00:17:09;19.55;;;17.52;;
80508;SDS011;69838;52.602;13.434;2023-05-07T00:17:55;19.25;;;16.88;;
80508;SDS011;69838;52.602;13.434;2023-05-07T00:18:40;22.13;;;17.77;;
80508;SDS011;69838;52.602;13.434;2023-05-07T00:19:25;19.65;;;17.48;;
80508;SDS011;69838;52.602;13.434;2023-05-07T00:20:11;20.13;;;17.50;;
80508;SDS011;69838;52.602;13.434;2023-05-07T00:20:56;19.48;;;17.00;;
80508;SDS011;69838;52.602;13.434;2023-05-07T00:21:42;20.60;;;17.70;;
80508;SDS011;69838;52.602;13.434;2023-05-07T00:22:27;17.52;;;14.27;;
80508;SDS011;69838;52.602;13.434;2023-05-07T00:23:15;21.98;;;18.10;;
80508;SDS011;69838;52.602;13.434;2023-05-07T00:24:00;22.45;;;18.05;;
80508;SDS011;69838;52.602;13.434;2023-05-07T00:24:45;20.95;;;17.15;;
80508;SDS011;69838;52.602;13.434;2023-05-07T00:25:30;19.05;;;16.70;;
80508;SDS011;69838;52.602;13.434;2023-05-07T00:26:16;19.27;;;16.77;;
80508;SDS011;69838;52.602;13.434;2023-05-07T00:27:01;19.58;;;16.95;;
80508;SDS011;69838;52.602;13.434;2023-05-07T00:27:46;21.27;;;18.25;;
80508;SDS011;69838;52.602;13.434;2023-05-07T00:28:31;20.13;;;17.83;;
80508;SDS011;69838;52.602;13.434;2023-05-07T00:29:17;18.90;;;16.58;;
80508;SDS011;69838;52.602;13.434;2023-05-07T00:30:02;21.25;;;17.95;;
80508;SDS011;69838;52.602;13.434;2023-05-07T00:30:47;21.65;;;18.23;;
80508;SDS011;69838;52.602;13.434;2023-05-07T00:31:33;22.17;;;18.70;;
80508;SDS011;69838;52.602;13.434;2023-05-07T00:32:18;20.90;;;17.38;;
80508;SDS011;69838;52.602;13.434;2023-05-07T00:33:03;22.08;;;19.52;;
80508;SDS011;69838;52.602;13.434;2023-05-07T00:33:49;20.85;;;18.63;;
80508;SDS011;69838;52.602;13.434;2023-05-07T00:34:34;19.60;;;17.42;;
80508;SDS011;69838;52.602;13.434;2023-05-07T00:35:19;19.88;;;17.70;;
80508;SDS011;69838;52.602;13.434;2023-05-07T00:36:05;20.25;;;17.85;;
80508;SDS011;69838;52.602;13.434;2023-05-07T00:36:50;20.63;;;17.65;;
80508;SDS011;69838;52.602;13.434;2023-05-07T00:37:35;20.30;;;17.33;;
80508;SDS011;69838;52.602;13.434;2023-05-07T00:38:21;21.15;;;17.13;;
80508;SDS011;69838;52.602;13.434;2023-05-07T00:39:06;20.73;;;16.92;;
80508;SDS011;69838;52.602;13.434;2023-05-07T00:39:51;21.23;;;18.67;;
80508;SDS011;69838;52.602;13.434;2023-05-07T00:40:37;20.25;;;17.17;;
80508;SDS011;69838;52.602;13.434;2023-05-07T00:41:22;19.98;;;17.67;;
80508;SDS011;69838;52.602;13.434;2023-05-07T00:42:07;21.42;;;19.20;;
80508;SDS011;69838;52.602;13.434;2023-05-07T00:42:53;21.60;;;18.42;;
80508;SDS011;69838;52.602;13.434;2023-05-07T00:43:41;23.10;;;20.70;;
80508;SDS011;69838;52.602;13.434;2023-05-07T00:44:27;20.25;;;18.08;;
80508;SDS011;69838;52.602;13.434;2023-05-07T00:45:13;21.95;;;18.40;;
80508;SDS011;69838;52.602;13.434;2023-05-07T00:45:59;20.85;;;18.13;;
80508;SDS011;69838;52.602;13.434;2023-05-07T00:46:44;20.52;;;18.33;;
80508;SDS011;69838;52.602;13.434;2023-05-07T00:47:34;21.77;;;18.30;;
80508;SDS011;69838;52.602;13.434;2023-05-07T00:48:20;22.60;;;20.20;;
80508;SDS011;69838;52.602;13.434;2023-05-07T00:49:05;20.48;;;18.27;;
80508;SDS011;69838;52.602;13.434;2023-05-07T00:49:51;20.02;;;17.15;;
80508;SDS011;69838;52.602;13.434;2023-05-07T00:50:37;21.92;;;19.10;;
80508;SDS011;69838;52.602;13.434;2023-05-07T00:51:23;21.65;;;19.20;;
80508;SDS011;69838;52.602;13.434;2023-05-07T00:52:13;20.45;;;16.25;;
80508;SDS011;69838;52.602;13.434;2023-05-07T00:53:00;20.98;;;18.48;;
80508;SDS011;69838;52.602;13.434;2023-05-07T00:53:45;19.60;;;17.05;;
80508;SDS011;69838;52.602;13.434;2023-05-07T00:54:31;20.50;;;17.55;;
80508;SDS011;69838;52.602;13.434;2023-05-07T00:55:18;20.30;;;17.52;;
80508;SDS011;69838;52.602;13.434;2023-05-07T00:56:05;19.95;;;17.73;;
80508;SDS011;69838;52.602;13.434;2023-05-07T00:56:51;20.38;;;17.95;;
80508;SDS011;69838;52.602;13.434;2023-05-07T00:57:37;20.08;;;17.65;;
80508;SDS011;69838;52.602;13.434;2023-05-07T00:58:24;20.17;;;18.05;;
80508;SDS011;69838;52.602;13.434;2023-05-07T00:59:09;18.33;;;15.15;;
80508;SDS011;69838;52.602;13.434;2023-05-07T00:59:55;19.17;;;17.17;;
80508;SDS011;69838;52.602;13.434;2023-05-07T01:00:40;21.38;;;19.08;;
80508;SDS011;69838;52.602;13.434;2023-05-07T01:01:26;18.83;;;16.70;;
80508;SDS011;69838;52.602;13.434;2023-05-07T01:02:11;20.95;;;18.35;;
80508;SDS011;69838;52.602;13.434;2023-05-07T01:02:57;20.25;;;18.00;;
80508;SDS011;69838;52.602;13.434;2023-05-07T01:03:43;18.25;;;13.98;;
80508;SDS011;69838;52.602;13.434;2023-05-07T01:04:28;18.90;;;16.60;;
80508;SDS011;69838;52.602;13.434;2023-05-07T01:05:14;17.95;;;16.15;;
80508;SDS011;69838;52.602;13.434;2023-05-07T01:06:01;20.95;;;16.38;;
80508;SDS011;69838;52.602;13.434;2023-05-07T01:06:48;19.70;;;16.67;;
80508;SDS011;69838;52.602;13.434;2023-05-07T01:07:35;19.25;;;17.20;;
80508;SDS011;69838;52.602;13.434;2023-05-07T01:08:22;19.13;;;16.05;;
80508;SDS011;69838;52.602;13.434;2023-05-07T01:09:07;18.85;;;16.85;;
80508;SDS011;69838;52.602;13.434;2023-05-07T01:09:54;18.58;;;15.35;;
80508;SDS011;69838;52.602;13.434;2023-05-07T01:10:39;20.55;;;17.60;;
80508;SDS011;69838;52.602;13.434;2023-05-07T01:11:28;20.08;;;17.98;;
80508;SDS011;69838;52.602;13.434;2023-05-07T01:12:13;19.00;;;15.85;;
80508;SDS011;69838;52.602;13.434;2023-05-07T01:12:58;19.35;;;17.25;;
80508;SDS011;69838;52.602;13.434;2023-05-07T01:13:45;19.95;;;17.92;;
80508;SDS011;69838;52.602;13.434;2023-05-07T01:14:31;18.20;;;16.23;;
80508;SDS011;69838;52.602;13.434;2023-05-07T01:15:17;18.55;;;16.55;;
80508;SDS011;69838;52.602;13.434;2023-05-07T01:16:03;19.70;;;16.30;;
80508;SDS011;69838;52.602;13.434;2023-05-07T01:16:49;19.55;;;17.50;;
80508;SDS011;69838;52.602;13.434;2023-05-07T01:17:36;20.73;;;18.52;;
80508;SDS011;69838;52.602;13.434;2023-05-07T01:18:25;18.75;;;16.73;;
80508;SDS011;69838;52.602;13.434;2023-05-07T01:19:11;20.60;;;17.15;;
80508;SDS011;69838;52.602;13.434;2023-05-07T01:19:58;19.98;;;16.88;;
80508;SDS011;69838;52.602;13.434;2023-05-07T01:20:44;19.05;;;17.10;;
80508;SDS011;69838;52.602;13.434;2023-05-07T01:21:31;18.88;;;16.50;;
80508;SDS011;69838;52.602;13.434;2023-05-07T01:22:23;19.40;;;17.30;;
80508;SDS011;69838;52.602;13.434;2023-05-07T01:23:16;20.83;;;18.25;;
80508;SDS011;69838;52.602;13.434;2023-05-07T01:24:04;19.45;;;16.58;;
80508;SDS011;69838;52.602;13.434;2023-05-07T01:24:49;18.77;;;14.65;;
80508;SDS011;69838;52.602;13.434;2023-05-07T01:25:35;19.35;;;17.35;;
80508;SDS011;69838;52.602;13.434;2023-05-07T01:26:20;20.63;;;17.77;;
80508;SDS011;69838;52.602;13.434;2023-05-07T01:27:06;19.77;;;17.67;;
80508;SDS011;69838;52.602;13.434;2023-05-07T01:27:52;19.77;;;16.63;;
80508;SDS011;69838;52.602;13.434;2023-05-07T01:28:37;21.13;;;18.92;;
80508;SDS011;69838;52.602;13.434;2023-05-07T01:29:22;21.90;;;18.58;;
80508;SDS011;69838;52.602;13.434;2023-05-07T01:30:08;20.25;;;16.85;;
80508;SDS011;69838;52.602;13.434;2023-05-07T01:30:54;21.17;;;18.77;;
80508;SDS011;69838;52.602;13.434;2023-05-07T01:31:44;20.50;;;18.08;;
80508;SDS011;69838;52.602;13.434;2023-05-07T01:32:38;19.92;;;17.77;;
80508;SDS011;69838;52.602;13.434;2023-05-07T01:33:28;18.83;;;16.83;;
80508;SDS011;69838;52.602;13.434;2023-05-07T01:34:16;19.58;;;17.38;;
80508;SDS011;69838;52.602;13.434;2023-05-07T01:35:02;19.10;;;16.95;;
80508;SDS011;69838;52.602;13.434;2023-05-07T01:35:51;19.13;;;16.60;;
80508;SDS011;69838;52.602;13.434;2023-05-07T01:36:38;20.23;;;15.23;;
80508;SDS011;69838;52.602;13.434;2023-05-07T01:37:26;19.30;;;17.25;;
80508;SDS011;69838;52.602;13.434;2023-05-07T01:38:11;19.55;;;17.55;;
80508;SDS011;69838;52.602;13.434;2023-05-07T01:38:57;17.58;;;15.73;;
80508;SDS011;69838;52.602;13.434;2023-05-07T01:39:43;20.40;;;17.10;;
80508;SDS011;69838;52.602;13.434;2023-05-07T01:40:29;19.55;;;17.23;;
80508;SDS011;69838;52.602;13.434;2023-05-07T01:41:15;19.08;;;17.08;;
80508;SDS011;69838;52.602;13.434;2023-05-07T01:42:00;20.80;;;17.42;;
80508;SDS011;69838;52.602;13.434;2023-05-07T01:42:46;20.73;;;16.63;;
80508;SDS011;69838;52.602;13.434;2023-05-07T01:43:33;20.10;;;17.35;;
80508;SDS011;69838;52.602;13.434;2023-05-07T01:44:18;19.92;;;16.75;;
80508;SDS011;69838;52.602;13.434;2023-05-07T01:45:04;19.75;;;16.30;;
80508;SDS011;69838;52.602;13.434;2023-05-07T01:45:50;20.15;;;16.48;;
80508;SDS011;69838;52.602;13.434;2023-05-07T01:46:37;20.02;;;17.83;;
80508;SDS011;69838;52.602;13.434;2023-05-07T01:47:22;19.00;;;17.05;;
80508;SDS011;69838;52.602;13.434;2023-05-07T01:48:10;19.05;;;16.00;;
80508;SDS011;69838;52.602;13.434;2023-05-07T01:48:56;20.55;;;17.63;;
80508;SDS011;69838;52.602;13.434;2023-05-07T01:49:41;21.75;;;19.52;;
80508;SDS011;69838;52.602;13.434;2023-05-07T01:50:26;20.77;;;18.60;;
80508;SDS011;69838;52.602;13.434;2023-05-07T01:51:13;19.73;;;16.80;;
80508;SDS011;69838;52.602;13.434;2023-05-07T01:51:58;20.92;;;17.67;;
80508;SDS011;69838;52.602;13.434;2023-05-07T01:52:44;20.35;;;16.55;;
80508;SDS011;69838;52.602;13.434;2023-05-07T01:53:35;19.30;;;16.63;;
80508;SDS011;69838;52.602;13.434;2023-05-07T01:54:30;20.75;;;16.10;;
80508;SDS011;69838;52.602;13.434;2023-05-07T01:55:16;18.80;;;15.73;;
80508;SDS011;69838;52.602;13.434;2023-05-07T01:56:01;18.52;;;15.45;;
80508;SDS011;69838;52.602;13.434;2023-05-07T01:56:47;18.60;;;16.60;;
80508;SDS011;69838;52.602;13.434;2023-05-07T01:57:33;19.27;;;15.85;;
80508;SDS011;69838;52.602;13.434;2023-05-07T01:58:19;18.83;;;16.17;;
80508;SDS011;69838;52.602;13.434;2023-05-07T01:59:04;17.10;;;13.88;;
80508;SDS011;69838;52.602;13.434;2023-05-07T01:59:50;18.38;;;16.38;;
80508;SDS011;69838;52.602;13.434;2023-05-07T02:00:35;20.73;;;16.00;;
80508;SDS011;69838;52.602;13.434;2023-05-07T02:01:20;18.48;;;15.68;;
80508;SDS011;69838;52.602;13.434;2023-05-07T02:02:06;18.52;;;16.15;;
80508;SDS011;69838;52.602;13.434;2023-05-07T02:02:51;18.75;;;15.32;;
80508;SDS011;69838;52.602;13.434;2023-05-07T02:03:37;19.08;;;15.38;;
80508;SDS011;69838;52.602;13.434;2023-05-07T02:04:23;17.50;;;15.07;;
80508;SDS011;69838;52.602;13.434;2023-05-07T02:05:08;18.58;;;14.88;;
80508;SDS011;69838;52.602;13.434;2023-05-07T02:05:53;17.85;;;14.98;;
80508;SDS011;69838;52.602;13.434;2023-05-07T02:06:39;18.70;;;15.50;;
80508;SDS011;69838;52.602;13.434;2023-05-07T02:07:24;19.05;;;15.27;;
80508;SDS011;69838;52.602;13.434;2023-05-07T02:08:09;19.05;;;16.38;;
80508;SDS011;69838;52.602;13.434;2023-05-07T02:08:55;18.30;;;15.27;;
80508;SDS011;69838;52.602;13.434;2023-05-07T02:09:40;17.38;;;14.90;;
80508;SDS011;69838;52.602;13.434;2023-05-07T02:10:25;18.77;;;15.70;;
80508;SDS011;69838;52.602;13.434;2023-05-07T02:11:11;16.95;;;15.10;;
80508;SDS011;69838;52.602;13.434;2023-05-07T02:11:56;19.88;;;17.15;;
80508;SDS011;69838;52.602;13.434;2023-05-07T02:12:41;17.15;;;15.05;;
80508;SDS011;69838;52.602;13.434;2023-05-07T02:13:29;18.23;;;15.05;;
80508;SDS011;69838;52.602;13.434;2023-05-07T02:14:15;18.05;;;14.15;;
80508;SDS011;69838;52.602;13.434;2023-05-07T02:15:00;16.30;;;14.27;;
80508;SDS011;69838;52.602;13.434;2023-05-07T02:15:46;16.60;;;13.80;;
80508;SDS011;69838;52.602;13.434;2023-05-07T02:16:35;17.27;;;14.77;;
80508;SDS011;69838;52.602;13.434;2023-05-07T02:17:20;17.02;;;14.93;;
80508;SDS011;69838;52.602;13.434;2023-05-07T02:18:07;16.48;;;14.40;;
80508;SDS011;69838;52.602;13.434;2023-05-07T02:18:54;17.08;;;14.45;;
80508;SDS011;69838;52.602;13.434;2023-05-07T02:19:39;16.77;;;14.60;;
80508;SDS011;69838;52.602;13.434;2023-05-07T02:20:25;17.63;;;15.40;;
80508;SDS011;69838;52.602;13.434;2023-05-07T02:21:10;17.88;;;14.65;;
80508;SDS011;69838;52.602;13.434;2023-05-07T02:21:55;17.52;;;14.43;;
80508;SDS011;69838;52.602;13.434;2023-05-07T02:22:41;16.30;;;14.35;;
80508;SDS011;69838;52.602;13.434;2023-05-07T02:23:26;18.67;;;15.75;;
80508;SDS011;69838;52.602;13.434;2023-05-07T02:24:11;16.52;;;14.70;;
80508;SDS011;69838;52.602;13.434;2023-05-07T02:24:57;16.55;;;13.32;;
80508;SDS011;69838;52.602;13.434;2023-05-07T02:25:42;17.70;;;15.30;;
80508;SDS011;69838;52.602;13.434;2023-05-07T02:26:27;16.58;;;14.77;;
80508;SDS011;69838;52.602;13.434;2023-05-07T02:27:12;17.05;;;15.23;;
80508;SDS011;69838;52.602;13.434;2023-05-07T02:27:58;15.98;;;13.95;;
80508;SDS011;69838;52.602;13.434;2023-05-07T02:28:43;16.35;;;14.65;;
80508;SDS011;69838;52.602;13.434;2023-05-07T02:29:29;16.00;;;14.27;;
80508;SDS011;69838;52.602;13.434;2023-05-07T02:30:14;15.93;;;14.25;;
80508;SDS011;69838;52.602;13.434;2023-05-07T02:31:00;18.20;;;15.02;;
80508;SDS011;69838;52.602;13.434;2023-05-07T02:31:47;16.73;;;13.35;;
80508;SDS011;69838;52.602;13.434;2023-05-07T02:32:35;17.27;;;15.48;;
80508;SDS011;69838;52.602;13.434;2023-05-07T02:33:21;17.17;;;13.80;;
80508;SDS011;69838;52.602;13.434;2023-05-07T02:34:06;15.88;;;13.50;;
80508;SDS011;69838;52.602;13.434;2023-05-07T02:34:51;15.60;;;13.95;;
80508;SDS011;69838;52.602;13.434;2023-05-07T02:35:37;17.15;;;15.35;;
80508;SDS011;69838;52.602;13.434;2023-05-07T02:36:22;17.38;;;15.57;;
80508;SDS011;69838;52.602;13.434;2023-05-07T02:37:07;15.48;;;13.48;;
80508;SDS011;69838;52.602;13.434;2023-05-07T02:37:53;16.20;;;13.57;;
80508;SDS011;69838;52.602;13.434;2023-05-07T02:38:38;15.77;;;13.35;;
80508;SDS011;69838;52.602;13.434;2023-05-07T02:39:23;15.95;;;14.25;;
80508;SDS011;69838;52.602;13.434;2023-05-07T02:40:09;15.82;;;13.90;;
80508;SDS011;69838;52.602;13.434;2023-05-07T02:40:54;18.40;;;14.65;;
80508;SDS011;69838;52.602;13.434;2023-05-07T02:41:40;17.25;;;14.80;;
80508;SDS011;69838;52.602;13.434;2023-05-07T02:42:25;16.42;;;14.75;;
80508;SDS011;69838;52.602;13.434;2023-05-07T02:43:10;16.88;;;14.48;;
80508;SDS011;69838;52.602;13.434;2023-05-07T02:43:56;17.25;;;14.70;;
80508;SDS011;69838;52.602;13.434;2023-05-07T02:44:41;17.15;;;15.18;;
80508;SDS011;69838;52.602;13.434;2023-05-07T02:45:26;17.48;;;14.02;;
80508;SDS011;69838;52.602;13.434;2023-05-07T02:46:11;15.82;;;13.23;;
80508;SDS011;69838;52.602;13.434;2023-05-07T02:46:57;15.27;;;13.32;;
80508;SDS011;69838;52.602;13.434;2023-05-07T02:47:42;15.18;;;13.23;;
80508;SDS011;69838;52.602;13.434;2023-05-07T02:48:27;16.75;;;13.82;;
80508;SDS011;69838;52.602;13.434;2023-05-07T02:49:13;16.60;;;13.60;;
80508;SDS011;69838;52.602;13.434;2023-05-07T02:49:58;15.38;;;13.38;;
80508;SDS011;69838;52.602;13.434;2023-05-07T02:50:43;15.75;;;13.82;;
80508;SDS011;69838;52.602;13.434;2023-05-07T02:51:29;16.30;;;14.27;;
80508;SDS011;69838;52.602;13.434;2023-05-07T02:52:15;17.08;;;14.68;;
80508;SDS011;69838;52.602;13.434;2023-05-07T02:53:00;15.70;;;13.98;;
80508;SDS011;69838;52.602;13.434;2023-05-07T02:53:46;14.75;;;12.82;;
80508;SDS011;69838;52.602;13.434;2023-05-07T02:54:32;16.90;;;12.88;;
80508;SDS011;69838;52.602;13.434;2023-05-07T02:55:17;15.25;;;13.18;;
80508;SDS011;69838;52.602;13.434;2023-05-07T02:56:02;15.20;;;12.20;;
80508;SDS011;69838;52.602;13.434;2023-05-07T02:56:48;14.63;;;12.48;;
80508;SDS011;69838;52.602;13.434;2023-05-07T02:57:33;15.95;;;12.85;;
80508;SDS011;69838;52.602;13.434;2023-05-07T02:58:18;16.25;;;13.60;;
80508;SDS011;69838;52.602;13.434;2023-05-07T02:59:03;16.33;;;12.77;;
80508;SDS011;69838;52.602;13.434;2023-05-07T02:59:49;14.65;;;12.65;;
80508;SDS011;69838;52.602;13.434;2023-05-07T03:00:35;16.27;;;13.68;;
80508;SDS011;69838;52.602;13.434;2023-05-07T03:01:21;15.68;;;13.38;;
80508;SDS011;69838;52.602;13.434;2023-05-07T03:02:06;15.23;;;13.15;;
80508;SDS011;69838;52.602;13.434;2023-05-07T03:02:51;14.25;;;12.18;;
80508;SDS011;69838;52.602;13.434;2023-05-07T03:03:37;14.80;;;13.02;;
80508;SDS011;69838;52.602;13.434;2023-05-07T03:04:22;16.10;;;13.45;;
80508;SDS011;69838;52.602;13.434;2023-05-07T03:05:07;15.48;;;12.60;;
80508;SDS011;69838;52.602;13.434;2023-05-07T03:05:53;15.63;;;12.25;;
80508;SDS011;69838;52.602;13.434;2023-05-07T03:06:38;16.65;;;13.27;;
80508;SDS011;69838;52.602;13.434;2023-05-07T03:07:24;15.23;;;13.45;;
80508;SDS011;69838;52.602;13.434;2023-05-07T03:08:09;14.32;;;12.65;;
80508;SDS011;69838;52.602;13.434;2023-05-07T03:08:55;16.63;;;13.65;;
80508;SDS011;69838;52.602;13.434;2023-05-07T03:09:40;18.60;;;13.25;;
80508;SDS011;69838;52.602;13.434;2023-05-07T03:10:25;15.95;;;14.20;;
80508;SDS011;69838;52.602;13.434;2023-05-07T03:11:11;16.38;;;13.48;;
80508;SDS011;69838;52.602;13.434;2023-05-07T03:11:56;16.23;;;14.63;;
80508;SDS011;69838;52.602;13.434;2023-05-07T03:12:42;14.57;;;12.70;;
80508;SDS011;69838;52.602;13.434;2023-05-07T03:13:27;15.25;;;13.02;;
80508;SDS011;69838;52.602;13.434;2023-05-07T03:14:12;17.85;;;13.50;;
80508;SDS011;69838;52.602;13.434;2023-05-07T03:14:58;14.77;;;12.88;;
80508;SDS011;69838;52.602;13.434;2023-05-07T03:15:43;16.30;;;13.85;;
80508;SDS011;69838;52.602;13.434;2023-05-07T03:16:28;15.25;;;13.43;;
80508;SDS011;69838;52.602;13.434;2023-05-07T03:17:14;15.57;;;13.20;;
80508;SDS011;69838;52.602;13.434;2023-05-07T03:18:01;14.18;;;12.40;;
80508;SDS011;69838;52.602;13.434;2023-05-07T03:18:46;14.43;;;12.82;;
80508;SDS011;69838;52.602;13.434;2023-05-07T03:19:31;16.40;;;13.18;;
80508;SDS011;69838;52.602;13.434;2023-05-07T03:20:16;14.70;;;12.30;;
80508;SDS011;69838;52.602;13.434;2023-05-07T03:21:02;15.63;;;13.73;;
80508;SDS011;69838;52.602;13.434;2023-05-07T03:21:47;14.55;;;12.82;;
80508;SDS011;69838;52.602;13.434;2023-05-07T03:22:33;15.60;;;12.60;;
80508;SDS011;69838;52.602;13.434;2023-05-07T03:23:18;14.98;;;12.35;;
80508;SDS011;69838;52.602;13.434;2023-05-07T03:24:03;15.10;;;12.73;;
80508;SDS011;69838;52.602;13.434;2023-05-07T03:24:49;14.60;;;12.00;;
80508;SDS011;69838;52.602;13.434;2023-05-07T03:25:34;14.05;;;12.05;;
80508;SDS011;69838;52.602;13.434;2023-05-07T03:26:20;14.07;;;12.57;;
80508;SDS011;69838;52.602;13.434;2023-05-07T03:27:06;13.80;;;12.32;;
80508;SDS011;69838;52.602;13.434;2023-05-07T03:27:51;17.27;;;14.27;;
80508;SDS011;69838;52.602;13.434;2023-05-07T03:28:36;14.63;;;12.90;;
80508;SDS011;69838;52.602;13.434;2023-05-07T03:29:22;15.07;;;13.45;;
80508;SDS011;69838;52.602;13.434;2023-05-07T03:30:07;14.30;;;12.80;;
80508;SDS011;69838;52.602;13.434;2023-05-07T03:30:53;15.35;;;13.05;;
80508;SDS011;69838;52.602;13.434;2023-05-07T03:31:39;15.18;;;13.25;;
80508;SDS011;69838;52.602;13.434;2023-05-07T03:32:24;13.68;;;11.32;;
80508;SDS011;69838;52.602;13.434;2023-05-07T03:33:09;14.93;;;12.55;;
80508;SDS011;69838;52.602;13.434;2023-05-07T03:33:56;14.77;;;12.05;;
80508;SDS011;69838;52.602;13.434;2023-05-07T03:34:42;15.77;;;12.55;;
80508;SDS011;69838;52.602;13.434;2023-05-07T03:35:27;15.07;;;13.18;;
80508;SDS011;69838;52.602;13.434;2023-05-07T03:36:12;14.07;;;12.48;;
80508;SDS011;69838;52.602;13.434;2023-05-07T03:36:57;14.82;;;12.73;;
80508;SDS011;69838;52.602;13.434;2023-05-07T03:37:43;16.55;;;13.27;;
80508;SDS011;69838;52.602;13.434;2023-05-07T03:38:28;14.35;;;12.07;;
80508;SDS011;69838;52.602;13.434;2023-05-07T03:39:13;14.43;;;12.90;;
80508;SDS011;69838;52.602;13.434;2023-05-07T03:39:58;13.52;;;12.00;;
80508;SDS011;69838;52.602;13.434;2023-05-07T03:40:44;14.70;;;12.20;;
80508;SDS011;69838;52.602;13.434;2023-05-07T03:41:29;15.45;;;11.98;;
80508;SDS011;69838;52.602;13.434;2023-05-07T03:42:15;13.65;;;12.18;;
80508;SDS011;69838;52.602;13.434;2023-05-07T03:43:00;14.90;;;12.60;;
80508;SDS011;69838;52.602;13.434;2023-05-07T03:43:46;13.40;;;11.98;;
80508;SDS011;69838;52.602;13.434;2023-05-07T03:44:31;14.18;;;12.63;;
80508;SDS011;69838;52.602;13.434;2023-05-07T03:45:16;15.82;;;12.30;;
80508;SDS011;69838;52.602;13.434;2023-05-07T03:46:02;15.82;;;14.02;;
80508;SDS011;69838;52.602;13.434;2023-05-07T03:46:47;14.90;;;13.30;;
80508;SDS011;69838;52.602;13.434;2023-05-07T03:47:32;14.68;;;13.18;;
80508;SDS011;69838;52.602;13.434;2023-05-07T03:48:17;14.77;;;13.27;;
80508;SDS011;69838;52.602;13.434;2023-05-07T03:49:03;16.35;;;14.75;;
80508;SDS011;69838;52.602;13.434;2023-05-07T03:49:48;15.50;;;13.00;;
80508;SDS011;69838;52.602;13.434;2023-05-07T03:50:35;14.75;;;12.48;;
80508;SDS011;69838;52.602;13.434;2023-05-07T03:51:20;15.32;;;12.88;;
80508;SDS011;69838;52.602;13.434;2023-05-07T03:52:05;14.68;;;12.68;;
80508;SDS011;69838;52.602;13.434;2023-05-07T03:52:51;13.55;;;11.98;;
80508;SDS011;69838;52.602;13.434;2023-05-07T03:53:36;15.13;;;12.60;;
80508;SDS011;69838;52.602;13.434;2023-05-07T03:54:22;15.73;;;11.57;;
80508;SDS011;69838;52.602;13.434;2023-05-07T03:55:07;15.82;;;13.23;;
80508;SDS011;69838;52.602;13.434;2023-05-07T03:55:53;15.07;;;13.18;;
80508;SDS011;69838;52.602;13.434;2023-05-07T03:56:38;13.98;;;12.48;;
80508;SDS011;69838;52.602;13.434;2023-05-07T03:57:24;14.52;;;12.88;;
80508;SDS011;69838;52.602;13.434;2023-05-07T03:58:09;13.57;;;12.18;;
80508;SDS011;69838;52.602;13.434;2023-05-07T03:58:54;14.60;;;12.45;;
80508;SDS011;69838;52.602;13.434;2023-05-07T03:59:40;16.08;;;13.30;;
80508;SDS011;69838;52.602;13.434;2023-05-07T04:00:25;15.40;;;13.10;;
80508;SDS011;69838;52.602;13.434;2023-05-07T04:01:10;14.40;;;12.02;;
80508;SDS011;69838;52.602;13.434;2023-05-07T04:01:56;14.05;;;12.52;;
80508;SDS011;69838;52.602;13.434;2023-05-07T04:02:41;13.18;;;11.73;;
80508;SDS011;69838;52.602;13.434;2023-05-07T04:03:27;14.73;;;13.23;;
80508;SDS011;69838;52.602;13.434;2023-05-07T04:04:12;13.18;;;10.68;;
80508;SDS011;69838;52.602;13.434;2023-05-07T04:04:57;13.52;;;12.13;;
80508;SDS011;69838;52.602;13.434;2023-05-07T04:05:43;16.30;;;14.68;;
80508;SDS011;69838;52.602;13.434;2023-05-07T04:06:28;15.07;;;13.57;;
80508;SDS011;69838;52.602;13.434;2023-05-07T04:07:13;13.82;;;12.13;;
80508;SDS011;69838;52.602;13.434;2023-05-07T04:07:59;13.63;;;12.18;;
80508;SDS011;69838;52.602;13.434;2023-05-07T04:08:45;13.45;;;12.05;;
80508;SDS011;69838;52.602;13.434;2023-05-07T04:09:30;14.07;;;12.57;;
80508;SDS011;69838;52.602;13.434;2023-05-07T04:10:16;14.00;;;12.52;;
80508;SDS011;69838;52.602;13.434;2023-05-07T04:11:01;13.02;;;10.13;;
80508;SDS011;69838;52.602;13.434;2023-05-07T04:11:46;13.55;;;11.82;;
80508;SDS011;69838;52.602;13.434;2023-05-07T04:12:31;14.05;;;12.55;;
80508;SDS011;69838;52.602;13.434;2023-05-07T04:13:17;15.20;;;12.63;;
80508;SDS011;69838;52.602;13.434;2023-05-07T04:14:02;14.60;;;11.98;;
80508;SDS011;69838;52.602;13.434;2023-05-07T04:14:47;12.70;;;11.18;;
80508;SDS011;69838;52.602;13.434;2023-05-07T04:15:32;13.30;;;11.50;;
80508;SDS011;69838;52.602;13.434;2023-05-07T04:16:18;13.88;;;12.05;;
80508;SDS011;69838;52.602;13.434;2023-05-07T04:17:03;13.85;;;11.50;;
80508;SDS011;69838;52.602;13.434;2023-05-07T04:17:48;13.10;;;11.60;;
80508;SDS011;69838;52.602;13.434;2023-05-07T04:18:34;13.65;;;12.13;;
80508;SDS011;69838;52.602;13.434;2023-05-07T04:19:19;14.35;;;12.45;;
80508;SDS011;69838;52.602;13.434;2023-05-07T04:20:05;15.05;;;12.88;;
80508;SDS011;69838;52.602;13.434;2023-05-07T04:20:52;15.43;;;13.93;;
80508;SDS011;69838;52.602;13.434;2023-05-07T04:21:37;15.55;;;12.80;;
80508;SDS011;69838;52.602;13.434;2023-05-07T04:22:22;15.23;;;13.35;;
80508;SDS011;69838;52.602;13.434;2023-05-07T04:23:08;14.50;;;12.63;;
80508;SDS011;69838;52.602;13.434;2023-05-07T04:23:53;13.43;;;11.90;;